sensor_id;sensor_type;location;lat;lon;timestamp;temperature;humidity
10192;DHT22;17580;50.850;4.504;2023-09-18T00:02:26;20.30;99.90
10192;DHT22;17580;50.850;4.504;2023-09-18T00:04:53;20.30;99.90
10192;DHT22;17580;50.850;4.504;2023-09-18T00:07:20;20.30;99.90
10192;DHT22;17580;50.850;4.504;2023-09-18T00:09:47;20.30;99.70
10192;DHT22;17580;50.850;4.504;2023-09-18T00:12:16;20.30;99.20
10192;DHT22;17580;50.850;4.504;2023-09-18T00:14:43;20.40;98.90
10192;DHT22;17580;50.850;4.504;2023-09-18T00:17:09;20.40;98.80
10192;DHT22;17580;50.850;4.504;2023-09-18T00:19:36;20.30;99.00
10192;DHT22;17580;50.850;4.504;2023-09-18T00:22:03;20.40;98.80
10192;DHT22;17580;50.850;4.504;2023-09-18T00:24:30;20.40;99.00
10192;DHT22;17580;50.850;4.504;2023-09-18T00:26:57;20.40;99.30
10192;DHT22;17580;50.850;4.504;2023-09-18T00:29:26;20.40;98.60
10192;DHT22;17580;50.850;4.504;2023-09-18T00:31:52;20.40;98.30
10192;DHT22;17580;50.850;4.504;2023-09-18T00:34:19;20.30;99.90
10192;DHT22;17580;50.850;4.504;2023-09-18T00:36:46;20.30;99.90
10192;DHT22;17580;50.850;4.504;2023-09-18T00:39:13;20.30;99.90
10192;DHT22;17580;50.850;4.504;2023-09-18T00:41:41;20.40;99.90
10192;DHT22;17580;50.850;4.504;2023-09-18T00:44:08;20.40;99.90
10192;DHT22;17580;50.850;4.504;2023-09-18T00:46:36;20.40;99.90
10192;DHT22;17580;50.850;4.504;2023-09-18T00:49:04;20.40;99.90
10192;DHT22;17580;50.850;4.504;2023-09-18T00:51:31;20.50;99.90
10192;DHT22;17580;50.850;4.504;2023-09-18T00:53:58;20.50;99.90
10192;DHT22;17580;50.850;4.504;2023-09-18T00:56:26;20.50;99.90
10192;DHT22;17580;50.850;4.504;2023-09-18T00:58:53;20.50;99.90
10192;DHT22;17580;50.850;4.504;2023-09-18T01:01:20;20.60;99.90
10192;DHT22;17580;50.850;4.504;2023-09-18T01:03:50;20.60;99.90
10192;DHT22;17580;50.850;4.504;2023-09-18T01:06:18;20.60;99.90
10192;DHT22;17580;50.850;4.504;2023-09-18T01:08:47;20.60;99.90
10192;DHT22;17580;50.850;4.504;2023-09-18T01:11:23;20.50;99.90
10192;DHT22;17580;50.850;4.504;2023-09-18T01:14:01;20.50;99.90
10192;DHT22;17580;50.850;4.504;2023-09-18T01:16:39;20.60;99.90
10192;DHT22;17580;50.850;4.504;2023-09-18T01:19:08;20.50;99.90
10192;DHT22;17580;50.850;4.504;2023-09-18T01:21:35;20.50;99.90
10192;DHT22;17580;50.850;4.504;2023-09-18T01:24:04;20.50;99.90
10192;DHT22;17580;50.850;4.504;2023-09-18T01:26:31;20.50;99.90
10192;DHT22;17580;50.850;4.504;2023-09-18T01:28:58;20.50;99.90
10192;DHT22;17580;50.850;4.504;2023-09-18T01:31:25;20.50;99.90
10192;DHT22;17580;50.850;4.504;2023-09-18T01:33:52;20.50;99.90
10192;DHT22;17580;50.850;4.504;2023-09-18T01:36:20;20.50;99.90
10192;DHT22;17580;50.850;4.504;2023-09-18T01:38:48;20.50;99.90
10192;DHT22;17580;50.850;4.504;2023-09-18T01:41:18;20.50;99.90
10192;DHT22;17580;50.850;4.504;2023-09-18T01:43:45;20.50;99.90
10192;DHT22;17580;50.850;4.504;2023-09-18T01:46:12;20.50;99.90
10192;DHT22;17580;50.850;4.504;2023-09-18T01:48:45;20.50;99.90
10192;DHT22;17580;50.850;4.504;2023-09-18T01:51:14;20.50;99.90
10192;DHT22;17580;50.850;4.504;2023-09-18T01:53:41;20.50;99.90
10192;DHT22;17580;50.850;4.504;2023-09-18T01:56:08;20.40;99.90
10192;DHT22;17580;50.850;4.504;2023-09-18T01:58:36;20.40;99.90
10192;DHT22;17580;50.850;4.504;2023-09-18T02:01:03;20.40;99.90
10192;DHT22;17580;50.850;4.504;2023-09-18T02:03:30;20.40;99.90
10192;DHT22;17580;50.850;4.504;2023-09-18T02:05:57;20.40;99.90
10192;DHT22;17580;50.850;4.504;2023-09-18T02:08:24;20.40;99.90
10192;DHT22;17580;50.850;4.504;2023-09-18T02:10:51;20.40;99.90
10192;DHT22;17580;50.850;4.504;2023-09-18T02:13:18;20.30;99.90
10192;DHT22;17580;50.850;4.504;2023-09-18T02:15:46;20.30;99.90
10192;DHT22;17580;50.850;4.504;2023-09-18T02:18:13;20.30;99.90
10192;DHT22;17580;50.850;4.504;2023-09-18T02:20:41;20.30;99.90
10192;DHT22;17580;50.850;4.504;2023-09-18T02:23:10;20.30;99.90
10192;DHT22;17580;50.850;4.504;2023-09-18T02:25:36;20.20;99.90
10192;DHT22;17580;50.850;4.504;2023-09-18T02:28:04;20.20;99.90
10192;DHT22;17580;50.850;4.504;2023-09-18T02:30:31;20.20;99.90
10192;DHT22;17580;50.850;4.504;2023-09-18T02:33:00;20.20;99.90
10192;DHT22;17580;50.850;4.504;2023-09-18T02:35:29;20.20;99.90
10192;DHT22;17580;50.850;4.504;2023-09-18T02:37:56;20.20;99.90
10192;DHT22;17580;50.850;4.504;2023-09-18T02:40:23;20.20;99.90
10192;DHT22;17580;50.850;4.504;2023-09-18T02:42:50;20.20;99.90
10192;DHT22;17580;50.850;4.504;2023-09-18T02:45:17;20.10;99.90
10192;DHT22;17580;50.850;4.504;2023-09-18T02:47:44;20.10;99.90
10192;DHT22;17580;50.850;4.504;2023-09-18T02:50:12;20.00;99.90
10192;DHT22;17580;50.850;4.504;2023-09-18T02:52:39;20.10;99.90
10192;DHT22;17580;50.850;4.504;2023-09-18T02:55:06;20.10;99.90
10192;DHT22;17580;50.850;4.504;2023-09-18T02:57:35;20.10;99.90
10192;DHT22;17580;50.850;4.504;2023-09-18T03:00:03;20.10;99.90
10192;DHT22;17580;50.850;4.504;2023-09-18T03:02:31;20.00;99.90
10192;DHT22;17580;50.850;4.504;2023-09-18T03:04:58;20.00;99.90
10192;DHT22;17580;50.850;4.504;2023-09-18T03:07:26;20.00;99.90
10192;DHT22;17580;50.850;4.504;2023-09-18T03:09:55;20.00;99.90
10192;DHT22;17580;50.850;4.504;2023-09-18T03:12:22;19.90;99.90
10192;DHT22;17580;50.850;4.504;2023-09-18T03:14:49;19.90;99.90
10192;DHT22;17580;50.850;4.504;2023-09-18T03:17:15;20.00;99.90
10192;DHT22;17580;50.850;4.504;2023-09-18T03:19:42;20.00;99.90
10192;DHT22;17580;50.850;4.504;2023-09-18T03:22:09;20.00;99.90
10192;DHT22;17580;50.850;4.504;2023-09-18T03:24:38;19.90;99.90
10192;DHT22;17580;50.850;4.504;2023-09-18T03:27:05;19.90;99.90
10192;DHT22;17580;50.850;4.504;2023-09-18T03:29:32;19.90;99.90
10192;DHT22;17580;50.850;4.504;2023-09-18T03:31:59;19.80;99.90
10192;DHT22;17580;50.850;4.504;2023-09-18T03:34:26;19.80;99.90
10192;DHT22;17580;50.850;4.504;2023-09-18T03:36:53;19.80;99.90
10192;DHT22;17580;50.850;4.504;2023-09-18T03:39:20;19.80;99.90
10192;DHT22;17580;50.850;4.504;2023-09-18T03:41:48;19.80;99.90
10192;DHT22;17580;50.850;4.504;2023-09-18T03:44:15;19.80;99.90
10192;DHT22;17580;50.850;4.504;2023-09-18T03:46:42;19.80;99.90
10192;DHT22;17580;50.850;4.504;2023-09-18T03:49:09;19.70;99.90
10192;DHT22;17580;50.850;4.504;2023-09-18T03:51:36;19.70;99.90
10192;DHT22;17580;50.850;4.504;2023-09-18T03:54:03;19.60;99.90
10192;DHT22;17580;50.850;4.504;2023-09-18T03:56:30;19.60;99.90
10192;DHT22;17580;50.850;4.504;2023-09-18T03:58:58;19.50;99.90
10192;DHT22;17580;50.850;4.504;2023-09-18T04:01:26;19.50;99.90
10192;DHT22;17580;50.850;4.504;2023-09-18T04:03:53;19.40;99.90
10192;DHT22;17580;50.850;4.504;2023-09-18T04:06:21;19.50;99.90
10192;DHT22;17580;50.850;4.504;2023-09-18T04:08:49;19.40;99.90
10192;DHT22;17580;50.850;4.504;2023-09-18T04:11:16;19.40;99.90
10192;DHT22;17580;50.850;4.504;2023-09-18T04:13:44;19.40;99.90
10192;DHT22;17580;50.850;4.504;2023-09-18T04:16:12;19.40;99.90
10192;DHT22;17580;50.850;4.504;2023-09-18T04:18:43;19.40;99.90
10192;DHT22;17580;50.850;4.504;2023-09-18T04:21:10;19.40;99.90
10192;DHT22;17580;50.850;4.504;2023-09-18T04:23:37;19.40;99.90
10192;DHT22;17580;50.850;4.504;2023-09-18T04:26:04;19.30;99.90
10192;DHT22;17580;50.850;4.504;2023-09-18T04:28:31;19.30;99.90
10192;DHT22;17580;50.850;4.504;2023-09-18T04:30:57;19.30;98.30
10192;DHT22;17580;50.850;4.504;2023-09-18T04:33:26;19.30;98.40
10192;DHT22;17580;50.850;4.504;2023-09-18T04:35:54;19.20;98.80
10192;DHT22;17580;50.850;4.504;2023-09-18T04:38:21;19.20;98.60
10192;DHT22;17580;50.850;4.504;2023-09-18T04:40:48;19.20;97.60
10192;DHT22;17580;50.850;4.504;2023-09-18T04:43:15;19.20;97.50
10192;DHT22;17580;50.850;4.504;2023-09-18T04:45:42;19.30;97.10
10192;DHT22;17580;50.850;4.504;2023-09-18T04:48:09;19.20;97.20
10192;DHT22;17580;50.850;4.504;2023-09-18T04:50:37;19.10;97.10
10192;DHT22;17580;50.850;4.504;2023-09-18T04:53:04;19.10;97.50
10192;DHT22;17580;50.850;4.504;2023-09-18T04:55:31;19.10;97.50
10192;DHT22;17580;50.850;4.504;2023-09-18T04:57:58;19.10;96.80
10192;DHT22;17580;50.850;4.504;2023-09-18T05:00:25;19.10;96.70
10192;DHT22;17580;50.850;4.504;2023-09-18T05:02:52;19.00;97.00
10192;DHT22;17580;50.850;4.504;2023-09-18T05:05:19;19.00;97.40
10192;DHT22;17580;50.850;4.504;2023-09-18T05:07:48;18.90;97.10
10192;DHT22;17580;50.850;4.504;2023-09-18T05:10:15;19.00;97.50
10192;DHT22;17580;50.850;4.504;2023-09-18T05:12:42;19.00;96.70
10192;DHT22;17580;50.850;4.504;2023-09-18T05:15:09;18.90;96.30
10192;DHT22;17580;50.850;4.504;2023-09-18T05:17:43;18.90;96.30
10192;DHT22;17580;50.850;4.504;2023-09-18T05:20:12;18.90;96.20
10192;DHT22;17580;50.850;4.504;2023-09-18T05:22:41;18.90;95.60
10192;DHT22;17580;50.850;4.504;2023-09-18T05:25:10;18.90;96.40
10192;DHT22;17580;50.850;4.504;2023-09-18T05:27:38;18.80;96.10
10192;DHT22;17580;50.850;4.504;2023-09-18T05:30:11;18.80;95.80
10192;DHT22;17580;50.850;4.504;2023-09-18T05:32:41;18.80;95.40
10192;DHT22;17580;50.850;4.504;2023-09-18T05:35:08;18.80;95.70
10192;DHT22;17580;50.850;4.504;2023-09-18T05:37:38;18.70;95.40
10192;DHT22;17580;50.850;4.504;2023-09-18T05:40:07;18.70;95.00
10192;DHT22;17580;50.850;4.504;2023-09-18T05:42:37;18.70;95.10
10192;DHT22;17580;50.850;4.504;2023-09-18T05:45:05;18.70;95.90
10192;DHT22;17580;50.850;4.504;2023-09-18T05:47:33;18.70;95.40
10192;DHT22;17580;50.850;4.504;2023-09-18T05:50:01;18.70;95.00
10192;DHT22;17580;50.850;4.504;2023-09-18T05:52:31;18.70;95.00
10192;DHT22;17580;50.850;4.504;2023-09-18T05:54:58;18.60;94.90
10192;DHT22;17580;50.850;4.504;2023-09-18T05:57:25;18.60;95.00
10192;DHT22;17580;50.850;4.504;2023-09-18T05:59:54;18.60;94.50
10192;DHT22;17580;50.850;4.504;2023-09-18T06:02:21;18.60;94.00
10192;DHT22;17580;50.850;4.504;2023-09-18T06:04:48;18.60;93.70
10192;DHT22;17580;50.850;4.504;2023-09-18T06:07:15;18.60;93.60
10192;DHT22;17580;50.850;4.504;2023-09-18T06:09:42;18.60;94.10
10192;DHT22;17580;50.850;4.504;2023-09-18T06:12:10;18.60;93.60
10192;DHT22;17580;50.850;4.504;2023-09-18T06:14:37;18.60;93.30
10192;DHT22;17580;50.850;4.504;2023-09-18T06:17:05;18.60;93.20
10192;DHT22;17580;50.850;4.504;2023-09-18T06:19:32;18.70;93.30
10192;DHT22;17580;50.850;4.504;2023-09-18T06:21:59;18.60;93.00
10192;DHT22;17580;50.850;4.504;2023-09-18T06:24:26;18.70;93.00
10192;DHT22;17580;50.850;4.504;2023-09-18T06:26:53;18.70;92.70
10192;DHT22;17580;50.850;4.504;2023-09-18T06:29:20;18.70;93.00
10192;DHT22;17580;50.850;4.504;2023-09-18T06:31:47;18.70;92.80
10192;DHT22;17580;50.850;4.504;2023-09-18T06:34:15;18.80;91.70
10192;DHT22;17580;50.850;4.504;2023-09-18T06:36:42;18.80;92.20
10192;DHT22;17580;50.850;4.504;2023-09-18T06:39:09;18.70;91.90
10192;DHT22;17580;50.850;4.504;2023-09-18T06:41:36;18.70;91.80
10192;DHT22;17580;50.850;4.504;2023-09-18T06:44:03;18.70;91.70
10192;DHT22;17580;50.850;4.504;2023-09-18T06:46:30;18.70;91.90
10192;DHT22;17580;50.850;4.504;2023-09-18T06:48:57;18.70;92.10
10192;DHT22;17580;50.850;4.504;2023-09-18T06:51:28;18.70;92.00
10192;DHT22;17580;50.850;4.504;2023-09-18T06:53:55;18.70;91.00
10192;DHT22;17580;50.850;4.504;2023-09-18T06:56:23;18.80;92.10
10192;DHT22;17580;50.850;4.504;2023-09-18T06:58:50;18.80;91.60
10192;DHT22;17580;50.850;4.504;2023-09-18T07:01:18;18.80;91.60
10192;DHT22;17580;50.850;4.504;2023-09-18T07:03:45;18.80;91.10
10192;DHT22;17580;50.850;4.504;2023-09-18T07:06:13;18.80;91.50
10192;DHT22;17580;50.850;4.504;2023-09-18T07:08:43;18.80;91.30
10192;DHT22;17580;50.850;4.504;2023-09-18T07:11:09;18.80;91.00
10192;DHT22;17580;50.850;4.504;2023-09-18T07:13:37;18.80;91.00
10192;DHT22;17580;50.850;4.504;2023-09-18T07:16:05;18.80;91.10
10192;DHT22;17580;50.850;4.504;2023-09-18T07:18:32;18.70;90.80
10192;DHT22;17580;50.850;4.504;2023-09-18T07:21:00;18.70;91.50
10192;DHT22;17580;50.850;4.504;2023-09-18T07:23:27;18.70;91.50
10192;DHT22;17580;50.850;4.504;2023-09-18T07:25:55;18.70;91.60
10192;DHT22;17580;50.850;4.504;2023-09-18T07:28:23;18.80;91.40
10192;DHT22;17580;50.850;4.504;2023-09-18T07:30:50;18.80;91.50
10192;DHT22;17580;50.850;4.504;2023-09-18T07:33:17;18.90;90.80
10192;DHT22;17580;50.850;4.504;2023-09-18T07:35:46;19.00;90.10
10192;DHT22;17580;50.850;4.504;2023-09-18T07:38:14;19.00;90.30
10192;DHT22;17580;50.850;4.504;2023-09-18T07:40:41;19.10;89.50
10192;DHT22;17580;50.850;4.504;2023-09-18T07:43:09;19.00;88.50
10192;DHT22;17580;50.850;4.504;2023-09-18T07:45:38;19.10;90.10
10192;DHT22;17580;50.850;4.504;2023-09-18T07:48:06;19.20;89.00
10192;DHT22;17580;50.850;4.504;2023-09-18T07:50:33;19.20;86.60
10192;DHT22;17580;50.850;4.504;2023-09-18T07:53:00;19.20;86.80
10192;DHT22;17580;50.850;4.504;2023-09-18T07:55:27;19.30;85.70
10192;DHT22;17580;50.850;4.504;2023-09-18T07:57:55;19.40;86.40
10192;DHT22;17580;50.850;4.504;2023-09-18T08:00:25;19.50;85.90
10192;DHT22;17580;50.850;4.504;2023-09-18T08:02:54;19.50;83.40
10192;DHT22;17580;50.850;4.504;2023-09-18T08:05:24;19.60;84.30
10192;DHT22;17580;50.850;4.504;2023-09-18T08:07:53;19.70;83.10
10192;DHT22;17580;50.850;4.504;2023-09-18T08:10:21;19.80;81.80
10192;DHT22;17580;50.850;4.504;2023-09-18T08:12:48;19.90;82.80
10192;DHT22;17580;50.850;4.504;2023-09-18T08:15:18;20.00;80.90
10192;DHT22;17580;50.850;4.504;2023-09-18T08:17:47;20.20;80.20
10192;DHT22;17580;50.850;4.504;2023-09-18T08:20:15;20.40;78.40
10192;DHT22;17580;50.850;4.504;2023-09-18T08:22:42;20.60;76.70
10192;DHT22;17580;50.850;4.504;2023-09-18T08:25:10;20.60;74.80
10192;DHT22;17580;50.850;4.504;2023-09-18T08:27:38;20.50;74.00
10192;DHT22;17580;50.850;4.504;2023-09-18T08:30:08;20.40;73.90
10192;DHT22;17580;50.850;4.504;2023-09-18T08:32:35;20.40;75.90
10192;DHT22;17580;50.850;4.504;2023-09-18T08:35:05;20.70;73.60
10192;DHT22;17580;50.850;4.504;2023-09-18T08:37:32;20.90;74.10
10192;DHT22;17580;50.850;4.504;2023-09-18T08:39:59;21.20;69.50
10192;DHT22;17580;50.850;4.504;2023-09-18T08:42:29;20.90;71.00
10192;DHT22;17580;50.850;4.504;2023-09-18T08:44:58;20.70;70.80
10192;DHT22;17580;50.850;4.504;2023-09-18T08:47:25;20.50;71.40
10192;DHT22;17580;50.850;4.504;2023-09-18T08:49:54;20.30;74.10
10192;DHT22;17580;50.850;4.504;2023-09-18T08:52:24;20.30;73.90
10192;DHT22;17580;50.850;4.504;2023-09-18T08:54:53;20.30;74.10
10192;DHT22;17580;50.850;4.504;2023-09-18T08:57:21;20.20;74.00
10192;DHT22;17580;50.850;4.504;2023-09-18T08:59:50;20.20;75.00
10192;DHT22;17580;50.850;4.504;2023-09-18T09:02:19;20.20;73.90
10192;DHT22;17580;50.850;4.504;2023-09-18T09:04:46;20.20;73.40
10192;DHT22;17580;50.850;4.504;2023-09-18T09:07:13;20.30;71.70
10192;DHT22;17580;50.850;4.504;2023-09-18T09:09:42;20.20;72.80
10192;DHT22;17580;50.850;4.504;2023-09-18T09:12:09;20.20;72.60
10192;DHT22;17580;50.850;4.504;2023-09-18T09:14:36;20.20;71.90
10192;DHT22;17580;50.850;4.504;2023-09-18T09:17:04;20.20;73.30
10192;DHT22;17580;50.850;4.504;2023-09-18T09:19:33;20.10;73.20
10192;DHT22;17580;50.850;4.504;2023-09-18T09:22:02;20.10;73.40
10192;DHT22;17580;50.850;4.504;2023-09-18T09:24:37;20.00;71.40
10192;DHT22;17580;50.850;4.504;2023-09-18T09:27:06;20.10;73.40
10192;DHT22;17580;50.850;4.504;2023-09-18T09:29:34;20.00;72.50
10192;DHT22;17580;50.850;4.504;2023-09-18T09:32:14;20.10;72.80
10192;DHT22;17580;50.850;4.504;2023-09-18T09:34:42;20.10;73.80
10192;DHT22;17580;50.850;4.504;2023-09-18T09:37:09;20.20;73.40
10192;DHT22;17580;50.850;4.504;2023-09-18T09:39:47;20.20;73.40
10192;DHT22;17580;50.850;4.504;2023-09-18T09:42:18;20.20;73.10
10192;DHT22;17580;50.850;4.504;2023-09-18T09:45:05;20.20;72.20
10192;DHT22;17580;50.850;4.504;2023-09-18T09:47:34;20.20;71.70
10192;DHT22;17580;50.850;4.504;2023-09-18T09:50:06;20.30;71.70
10192;DHT22;17580;50.850;4.504;2023-09-18T09:52:35;20.40;70.90
10192;DHT22;17580;50.850;4.504;2023-09-18T09:55:03;20.30;71.50
10192;DHT22;17580;50.850;4.504;2023-09-18T09:57:46;20.40;70.80
10192;DHT22;17580;50.850;4.504;2023-09-18T10:00:14;20.40;70.50
10192;DHT22;17580;50.850;4.504;2023-09-18T10:02:54;20.40;70.90
10192;DHT22;17580;50.850;4.504;2023-09-18T10:05:26;20.30;71.30
10192;DHT22;17580;50.850;4.504;2023-09-18T10:07:54;20.30;71.50
10192;DHT22;17580;50.850;4.504;2023-09-18T10:10:25;20.30;71.80
10192;DHT22;17580;50.850;4.504;2023-09-18T10:12:57;20.50;70.30
10192;DHT22;17580;50.850;4.504;2023-09-18T10:15:27;20.40;69.40
10192;DHT22;17580;50.850;4.504;2023-09-18T10:17:56;20.40;69.60
10192;DHT22;17580;50.850;4.504;2023-09-18T10:20:26;20.50;70.00
10192;DHT22;17580;50.850;4.504;2023-09-18T10:22:57;20.50;69.60
10192;DHT22;17580;50.850;4.504;2023-09-18T10:25:29;20.60;69.40
10192;DHT22;17580;50.850;4.504;2023-09-18T10:27:59;20.70;67.80
10192;DHT22;17580;50.850;4.504;2023-09-18T10:30:29;20.90;68.10
10192;DHT22;17580;50.850;4.504;2023-09-18T10:33:00;22.10;64.50
10192;DHT22;17580;50.850;4.504;2023-09-18T10:35:27;23.40;57.40
10192;DHT22;17580;50.850;4.504;2023-09-18T10:37:55;23.60;56.30
10192;DHT22;17580;50.850;4.504;2023-09-18T10:40:23;23.50;54.50
10192;DHT22;17580;50.850;4.504;2023-09-18T10:42:54;23.30;54.70
10192;DHT22;17580;50.850;4.504;2023-09-18T10:45:24;22.80;57.20
10192;DHT22;17580;50.850;4.504;2023-09-18T10:47:52;23.20;56.00
10192;DHT22;17580;50.850;4.504;2023-09-18T10:50:23;22.50;57.80
10192;DHT22;17580;50.850;4.504;2023-09-18T10:52:51;22.50;57.70
10192;DHT22;17580;50.850;4.504;2023-09-18T10:55:19;22.90;55.50
10192;DHT22;17580;50.850;4.504;2023-09-18T10:57:52;22.80;55.10
10192;DHT22;17580;50.850;4.504;2023-09-18T11:00:21;22.30;54.40
10192;DHT22;17580;50.850;4.504;2023-09-18T11:02:52;22.20;55.80
10192;DHT22;17580;50.850;4.504;2023-09-18T11:05:29;24.00;51.70
10192;DHT22;17580;50.850;4.504;2023-09-18T11:08:28;25.50;47.70
10192;DHT22;17580;50.850;4.504;2023-09-18T11:10:58;26.70;43.50
10192;DHT22;17580;50.850;4.504;2023-09-18T11:16:17;27.30;38.60
10192;DHT22;17580;50.850;4.504;2023-09-18T11:18:48;28.10;33.40
10192;DHT22;17580;50.850;4.504;2023-09-18T11:21:18;28.20;32.70
10192;DHT22;17580;50.850;4.504;2023-09-18T11:23:58;28.00;29.80
10192;DHT22;17580;50.850;4.504;2023-09-18T11:26:29;28.10;29.90
10192;DHT22;17580;50.850;4.504;2023-09-18T11:28:59;28.20;29.90
10192;DHT22;17580;50.850;4.504;2023-09-18T11:31:43;27.50;29.80
10192;DHT22;17580;50.850;4.504;2023-09-18T11:34:14;27.00;32.20
10192;DHT22;17580;50.850;4.504;2023-09-18T11:36:42;26.80;32.30
10192;DHT22;17580;50.850;4.504;2023-09-18T11:39:09;26.30;31.20
10192;DHT22;17580;50.850;4.504;2023-09-18T11:41:38;25.70;31.10
10192;DHT22;17580;50.850;4.504;2023-09-18T11:44:33;24.60;35.10
10192;DHT22;17580;50.850;4.504;2023-09-18T11:47:09;25.40;34.70
10192;DHT22;17580;50.850;4.504;2023-09-18T11:49:46;25.70;34.20
10192;DHT22;17580;50.850;4.504;2023-09-18T11:52:15;25.70;35.00
10192;DHT22;17580;50.850;4.504;2023-09-18T11:54:43;26.90;31.10
10192;DHT22;17580;50.850;4.504;2023-09-18T11:57:12;27.50;30.60
10192;DHT22;17580;50.850;4.504;2023-09-18T11:59:41;27.80;29.40
10192;DHT22;17580;50.850;4.504;2023-09-18T12:02:11;27.50;30.30
10192;DHT22;17580;50.850;4.504;2023-09-18T12:04:46;27.80;27.00
10192;DHT22;17580;50.850;4.504;2023-09-18T12:07:13;27.70;27.80
10192;DHT22;17580;50.850;4.504;2023-09-18T12:09:40;27.50;28.20
10192;DHT22;17580;50.850;4.504;2023-09-18T12:12:08;27.80;27.80
10192;DHT22;17580;50.850;4.504;2023-09-18T12:14:37;28.20;26.00
10192;DHT22;17580;50.850;4.504;2023-09-18T12:17:07;27.90;26.40
10192;DHT22;17580;50.850;4.504;2023-09-18T12:19:36;28.30;25.00
10192;DHT22;17580;50.850;4.504;2023-09-18T12:22:03;28.30;24.70
10192;DHT22;17580;50.850;4.504;2023-09-18T12:24:30;28.80;24.00
10192;DHT22;17580;50.850;4.504;2023-09-18T12:26:57;29.00;24.30
10192;DHT22;17580;50.850;4.504;2023-09-18T12:29:26;29.00;23.20
10192;DHT22;17580;50.850;4.504;2023-09-18T12:31:53;28.90;23.60
10192;DHT22;17580;50.850;4.504;2023-09-18T12:34:21;29.00;23.90
10192;DHT22;17580;50.850;4.504;2023-09-18T12:36:50;29.10;23.10
10192;DHT22;17580;50.850;4.504;2023-09-18T12:39:18;28.70;22.50
10192;DHT22;17580;50.850;4.504;2023-09-18T12:41:46;28.90;21.90
10192;DHT22;17580;50.850;4.504;2023-09-18T12:44:14;28.80;21.20
10192;DHT22;17580;50.850;4.504;2023-09-18T12:46:42;28.80;21.60
10192;DHT22;17580;50.850;4.504;2023-09-18T12:49:19;28.00;21.30
10192;DHT22;17580;50.850;4.504;2023-09-18T12:51:58;28.10;21.40
10192;DHT22;17580;50.850;4.504;2023-09-18T12:54:44;28.50;20.80
10192;DHT22;17580;50.850;4.504;2023-09-18T12:57:15;28.90;18.80
10192;DHT22;17580;50.850;4.504;2023-09-18T12:59:42;29.10;20.50
10192;DHT22;17580;50.850;4.504;2023-09-18T13:02:13;28.60;17.50
10192;DHT22;17580;50.850;4.504;2023-09-18T13:04:40;28.10;18.70
10192;DHT22;17580;50.850;4.504;2023-09-18T13:07:11;28.30;17.80
10192;DHT22;17580;50.850;4.504;2023-09-18T13:09:39;28.60;21.10
10192;DHT22;17580;50.850;4.504;2023-09-18T13:12:07;28.20;19.80
10192;DHT22;17580;50.850;4.504;2023-09-18T13:14:58;28.00;20.40
10192;DHT22;17580;50.850;4.504;2023-09-18T13:17:37;27.70;21.10
10192;DHT22;17580;50.850;4.504;2023-09-18T13:20:09;27.30;21.10
10192;DHT22;17580;50.850;4.504;2023-09-18T13:22:38;27.50;21.00
10192;DHT22;17580;50.850;4.504;2023-09-18T13:25:08;27.90;20.30
10192;DHT22;17580;50.850;4.504;2023-09-18T13:27:36;27.30;18.60
10192;DHT22;17580;50.850;4.504;2023-09-18T13:30:05;27.30;19.30
10192;DHT22;17580;50.850;4.504;2023-09-18T13:32:36;26.80;20.70
10192;DHT22;17580;50.850;4.504;2023-09-18T13:35:04;26.10;20.30
10192;DHT22;17580;50.850;4.504;2023-09-18T13:37:32;26.00;21.80
10192;DHT22;17580;50.850;4.504;2023-09-18T13:40:01;26.00;22.30
10192;DHT22;17580;50.850;4.504;2023-09-18T13:42:32;26.00;23.20
10192;DHT22;17580;50.850;4.504;2023-09-18T13:44:59;25.70;22.90
10192;DHT22;17580;50.850;4.504;2023-09-18T13:47:27;25.80;22.90
10192;DHT22;17580;50.850;4.504;2023-09-18T13:49:54;25.80;21.30
10192;DHT22;17580;50.850;4.504;2023-09-18T13:52:25;25.50;21.30
10192;DHT22;17580;50.850;4.504;2023-09-18T13:54:52;25.50;22.20
10192;DHT22;17580;50.850;4.504;2023-09-18T13:57:21;25.00;21.80
10192;DHT22;17580;50.850;4.504;2023-09-18T13:59:50;25.00;22.00
10192;DHT22;17580;50.850;4.504;2023-09-18T14:02:18;25.30;21.20
10192;DHT22;17580;50.850;4.504;2023-09-18T14:04:45;25.10;21.30
10192;DHT22;17580;50.850;4.504;2023-09-18T14:07:12;25.00;23.50
10192;DHT22;17580;50.850;4.504;2023-09-18T14:09:39;24.80;24.10
10192;DHT22;17580;50.850;4.504;2023-09-18T14:12:07;24.70;22.70
10192;DHT22;17580;50.850;4.504;2023-09-18T14:14:36;24.60;23.70
10192;DHT22;17580;50.850;4.504;2023-09-18T14:17:06;24.50;23.70
10192;DHT22;17580;50.850;4.504;2023-09-18T14:19:34;24.30;22.20
10192;DHT22;17580;50.850;4.504;2023-09-18T14:22:04;24.20;23.00
10192;DHT22;17580;50.850;4.504;2023-09-18T14:24:31;24.10;23.00
10192;DHT22;17580;50.850;4.504;2023-09-18T14:27:00;24.00;23.80
10192;DHT22;17580;50.850;4.504;2023-09-18T14:29:27;23.90;24.10
10192;DHT22;17580;50.850;4.504;2023-09-18T14:31:57;23.80;24.20
10192;DHT22;17580;50.850;4.504;2023-09-18T14:34:24;23.70;24.40
10192;DHT22;17580;50.850;4.504;2023-09-18T14:36:51;23.50;25.20
10192;DHT22;17580;50.850;4.504;2023-09-18T14:39:18;23.40;24.80
10192;DHT22;17580;50.850;4.504;2023-09-18T14:41:45;23.50;24.70
10192;DHT22;17580;50.850;4.504;2023-09-18T14:44:13;23.40;25.10
10192;DHT22;17580;50.850;4.504;2023-09-18T14:46:40;23.10;25.00
10192;DHT22;17580;50.850;4.504;2023-09-18T14:49:10;23.00;25.50
10192;DHT22;17580;50.850;4.504;2023-09-18T14:51:37;22.80;26.80
10192;DHT22;17580;50.850;4.504;2023-09-18T14:54:04;22.60;37.10
10192;DHT22;17580;50.850;4.504;2023-09-18T14:56:33;21.80;45.50
10192;DHT22;17580;50.850;4.504;2023-09-18T14:59:01;21.20;49.80
10192;DHT22;17580;50.850;4.504;2023-09-18T15:01:28;20.70;53.30
10192;DHT22;17580;50.850;4.504;2023-09-18T15:03:55;20.50;57.90
10192;DHT22;17580;50.850;4.504;2023-09-18T15:06:24;20.60;55.30
10192;DHT22;17580;50.850;4.504;2023-09-18T15:08:51;20.50;56.70
10192;DHT22;17580;50.850;4.504;2023-09-18T15:11:18;20.70;55.40
10192;DHT22;17580;50.850;4.504;2023-09-18T15:13:46;20.80;56.00
10192;DHT22;17580;50.850;4.504;2023-09-18T15:16:13;20.90;56.50
10192;DHT22;17580;50.850;4.504;2023-09-18T15:18:40;20.90;54.00
10192;DHT22;17580;50.850;4.504;2023-09-18T15:21:07;20.70;55.10
10192;DHT22;17580;50.850;4.504;2023-09-18T15:23:37;20.60;54.80
10192;DHT22;17580;50.850;4.504;2023-09-18T15:26:05;20.70;56.30
10192;DHT22;17580;50.850;4.504;2023-09-18T15:28:32;20.70;53.20
10192;DHT22;17580;50.850;4.504;2023-09-18T15:31:00;20.80;54.10
10192;DHT22;17580;50.850;4.504;2023-09-18T15:33:27;21.20;55.30
10192;DHT22;17580;50.850;4.504;2023-09-18T15:35:54;21.30;52.70
10192;DHT22;17580;50.850;4.504;2023-09-18T15:38:22;21.30;53.70
10192;DHT22;17580;50.850;4.504;2023-09-18T15:40:51;21.20;51.30
10192;DHT22;17580;50.850;4.504;2023-09-18T15:43:18;21.20;53.10